Time;durP1;ratioP1;P1;durP2;ratioP2;P2;SDS_P1;SDS_P2;PMS_P1;PMS_P2;Temp;Humidity;BMP_temperature;BMP_pressure;BME280_temperature;BME280_humidity;BME280_pressure;Samples;Min_cycle;Max_cycle;Signal;HPM_P1;HPM_P2
2021/06/15 00:01:10;;;;;;;12.13;4.90;;;;;;;;;;5117677;27;20681;-53
2021/06/15 00:03:36;;;;;;;7.73;4.07;;;;;;;;;;5128537;27;20183;-55
2021/06/15 00:06:01;;;;;;;5.87;4.40;;;;;;;;;;5117502;27;20217;-53
2021/06/15 00:08:28;;;;;;;5.53;4.10;;;;;;;;;;5124344;27;20202;-52
2021/06/15 00:10:54;;;;;;;4.20;3.80;;;;;;;;;;5122566;27;20242;-54
2021/06/15 00:13:21;;;;;;;7.90;4.47;;;;;;;;;;5117356;27;20211;-53
2021/06/15 00:15:49;;;;;;;6.47;4.57;;;;;;;;;;5105621;27;20582;-54
2021/06/15 00:18:15;;;;;;;5.70;4.27;;;;;;;;;;5115573;27;20199;-54
2021/06/15 00:20:44;;;;;;;6.30;4.57;;;;;;;;;;5114258;27;20257;-57
2021/06/15 00:23:10;;;;;;;9.10;5.03;;;;;;;;;;5122036;27;20261;-58
2021/06/15 00:25:35;;;;;;;9.03;4.70;;;;;;;;;;5116807;27;20187;-53
2021/06/15 00:28:03;;;;;;;6.53;4.20;;;;;;;;;;5115333;27;20217;-52
2021/06/15 00:30:29;;;;;;;9.80;4.27;;;;;;;;;;5128106;27;20286;-51
2021/06/15 00:32:54;;;;;;;11.03;4.67;;;;;;;;;;5121640;27;20284;-54
2021/06/15 00:35:20;;;;;;;7.33;4.67;;;;;;;;;;5108901;28;20644;-53
2021/06/15 00:37:45;;;;;;;9.03;4.90;;;;;;;;;;5105166;28;20265;-54
2021/06/15 00:40:11;;;;;;;10.23;4.83;;;;;;;;;;5104228;28;20211;-54
2021/06/15 00:42:37;;;;;;;8.20;4.77;;;;;;;;;;5124900;27;20215;-55
2021/06/15 00:45:14;;;;;;;8.40;4.87;;;;;;;;;;5112281;27;20277;-55
2021/06/15 00:47:42;;;;;;;7.97;4.90;;;;;;;;;;5131692;27;20561;-52
2021/06/15 00:50:11;;;;;;;6.57;4.80;;;;;;;;;;5130227;27;20213;-53
2021/06/15 00:52:36;;;;;;;7.40;4.73;;;;;;;;;;5125084;27;20247;-55
2021/06/15 00:55:02;;;;;;;6.17;4.33;;;;;;;;;;5123067;27;20203;-55
2021/06/15 00:57:27;;;;;;;7.07;4.10;;;;;;;;;;5095862;27;20182;-52
2021/06/15 00:59:54;;;;;;;7.63;4.03;;;;;;;;;;5131644;27;20584;-51
2021/06/15 01:02:20;;;;;;;8.20;4.13;;;;;;;;;;5125482;27;20187;-54
2021/06/15 01:04:46;;;;;;;5.65;4.32;;;;;;;;;;5126940;27;20223;-54
2021/06/15 01:07:18;;;;;;;7.93;4.22;;;;;;;;;;5133153;27;20238;-55
2021/06/15 01:09:55;;;;;;;6.63;3.80;;;;;;;;;;5123224;28;20180;-52
2021/06/15 01:12:25;;;;;;;4.80;4.07;;;;;;;;;;5108440;27;20198;-52
2021/06/15 01:15:03;;;;;;;7.53;4.50;;;;;;;;;;5127233;27;20726;-55
2021/06/15 01:17:46;;;;;;;7.20;4.13;;;;;;;;;;5127223;27;20190;-53
2021/06/15 01:20:17;;;;;;;7.90;4.25;;;;;;;;;;5107739;28;20242;-53
2021/06/15 01:23:20;;;;;;;5.87;4.20;;;;;;;;;;5102903;28;20637;-52
2021/06/15 01:26:07;;;;;;;6.83;3.73;;;;;;;;;;5113217;28;20187;-53
2021/06/15 01:28:47;;;;;;;7.57;4.13;;;;;;;;;;5132507;27;20183;-52
2021/06/15 01:31:22;;;;;;;7.93;4.73;;;;;;;;;;5125594;27;20736;-55
2021/06/15 01:33:55;;;;;;;6.88;4.78;;;;;;;;;;5117901;28;20219;-52
2021/06/15 01:36:24;;;;;;;6.13;4.53;;;;;;;;;;5118675;27;20203;-52
2021/06/15 01:38:56;;;;;;;7.53;4.70;;;;;;;;;;5116870;27;20199;-56
2021/06/15 01:41:31;;;;;;;8.50;4.30;;;;;;;;;;5126814;27;20207;-54
2021/06/15 01:44:08;;;;;;;6.53;3.73;;;;;;;;;;5121632;27;20222;-53
2021/06/15 01:46:41;;;;;;;10.93;4.67;;;;;;;;;;5119823;28;20602;-55
2021/06/15 01:49:13;;;;;;;6.90;4.33;;;;;;;;;;5111989;27;20257;-53
2021/06/15 01:51:42;;;;;;;8.97;4.50;;;;;;;;;;5097639;28;20199;-55
2021/06/15 01:54:11;;;;;;;9.20;5.37;;;;;;;;;;5103546;27;20187;-52
2021/06/15 01:56:42;;;;;;;8.87;5.60;;;;;;;;;;5132073;27;20262;-53
2021/06/15 01:59:08;;;;;;;6.88;5.20;;;;;;;;;;5132166;27;20187;-56
2021/06/15 02:01:35;;;;;;;8.77;5.05;;;;;;;;;;5130194;27;20187;-56
2021/06/15 02:04:02;;;;;;;6.67;5.23;;;;;;;;;;5149975;27;20196;-56
2021/06/15 02:06:29;;;;;;;8.57;5.47;;;;;;;;;;5146601;27;20203;-58
2021/06/15 02:08:57;;;;;;;10.77;5.60;;;;;;;;;;5144212;27;20188;-57
2021/06/15 02:11:26;;;;;;;9.07;6.10;;;;;;;;;;5133916;27;20220;-57
2021/06/15 02:13:51;;;;;;;8.10;5.83;;;;;;;;;;5157376;27;20251;-53
2021/06/15 02:16:18;;;;;;;9.17;6.80;;;;;;;;;;5142974;27;20819;-57
2021/06/15 02:18:50;;;;;;;9.50;6.53;;;;;;;;;;5127765;27;20183;-57
2021/06/15 02:21:16;;;;;;;14.30;7.10;;;;;;;;;;5144160;27;20210;-56
2021/06/15 02:23:44;;;;;;;8.93;6.50;;;;;;;;;;5145911;27;20178;-58
2021/06/15 02:26:19;;;;;;;9.53;6.70;;;;;;;;;;5141231;27;20198;-57
2021/06/15 02:28:45;;;;;;;10.03;7.20;;;;;;;;;;5141327;27;20184;-55
2021/06/15 02:31:17;;;;;;;10.40;7.47;;;;;;;;;;5152638;27;20195;-58
2021/06/15 02:33:46;;;;;;;8.57;7.00;;;;;;;;;;5144295;27;20191;-56
2021/06/15 02:36:19;;;;;;;9.67;6.77;;;;;;;;;;5132182;27;20287;-54
2021/06/15 02:39:07;;;;;;;16.83;6.83;;;;;;;;;;5109759;27;20164;-54
2021/06/15 02:41:36;;;;;;;11.43;7.03;;;;;;;;;;5157584;27;20211;-56
2021/06/15 02:44:03;;;;;;;15.00;7.40;;;;;;;;;;5146165;27;20256;-51
2021/06/15 02:46:33;;;;;;;11.53;6.73;;;;;;;;;;5118194;27;20203;-56
2021/06/15 02:49:07;;;;;;;11.33;7.33;;;;;;;;;;5127070;27;20187;-58
2021/06/15 02:51:37;;;;;;;14.63;7.53;;;;;;;;;;5126188;27;20214;-53
2021/06/15 02:54:22;;;;;;;10.50;8.20;;;;;;;;;;5124301;27;20449;-53
2021/06/15 02:56:53;;;;;;;10.43;6.90;;;;;;;;;;5121329;27;20190;-52
2021/06/15 02:59:20;;;;;;;10.40;6.60;;;;;;;;;;5123511;27;20749;-52
2021/06/15 03:01:53;;;;;;;13.03;7.87;;;;;;;;;;5132044;27;20211;-54
2021/06/15 03:04:21;;;;;;;12.97;8.10;;;;;;;;;;5116911;27;20223;-52
2021/06/15 03:06:48;;;;;;;17.00;9.47;;;;;;;;;;5123971;27;20695;-52
2021/06/15 03:09:14;;;;;;;15.40;9.43;;;;;;;;;;5118461;27;20554;-52
2021/06/15 03:11:48;;;;;;;14.57;9.17;;;;;;;;;;5103382;27;20329;-53
2021/06/15 03:14:24;;;;;;;15.30;8.47;;;;;;;;;;5119958;27;20188;-56
2021/06/15 03:16:53;;;;;;;10.97;8.27;;;;;;;;;;5131840;27;20175;-54
2021/06/15 03:19:26;;;;;;;11.87;8.73;;;;;;;;;;5131346;27;20201;-54
2021/06/15 03:22:22;;;;;;;10.87;8.73;;;;;;;;;;5117250;27;20206;-53
2021/06/15 03:24:54;;;;;;;14.10;9.17;;;;;;;;;;5086028;27;20199;-54
2021/06/15 03:27:36;;;;;;;18.93;9.70;;;;;;;;;;5096226;28;20207;-52
2021/06/15 03:30:10;;;;;;;9.80;8.17;;;;;;;;;;5121880;27;20213;-54
2021/06/15 03:32:51;;;;;;;12.90;8.47;;;;;;;;;;5135676;27;23870;-53
2021/06/15 03:35:17;;;;;;;11.83;8.33;;;;;;;;;;5129447;27;20175;-52
2021/06/15 03:37:59;;;;;;;12.73;8.40;;;;;;;;;;5108359;27;20269;-53
2021/06/15 03:40:27;;;;;;;9.50;8.07;;;;;;;;;;5129324;27;20282;-54
2021/06/15 03:42:56;;;;;;;10.73;7.97;;;;;;;;;;5129092;27;20223;-54
2021/06/15 03:45:25;;;;;;;9.87;6.97;;;;;;;;;;5121259;27;20175;-51
2021/06/15 03:47:52;;;;;;;11.07;6.70;;;;;;;;;;5130267;27;20215;-54
2021/06/15 03:50:21;;;;;;;10.43;7.40;;;;;;;;;;5099237;27;20203;-51
2021/06/15 03:52:51;;;;;;;14.07;7.70;;;;;;;;;;5114726;27;20183;-54
2021/06/15 03:55:19;;;;;;;15.50;7.13;;;;;;;;;;5119931;27;20243;-52
2021/06/15 03:57:46;;;;;;;9.50;7.03;;;;;;;;;;5128469;27;20179;-53
2021/06/15 04:00:14;;;;;;;12.47;7.10;;;;;;;;;;5128450;27;20634;-51
2021/06/15 04:02:42;;;;;;;9.03;6.00;;;;;;;;;;5135013;27;20228;-53
2021/06/15 04:05:09;;;;;;;10.63;6.80;;;;;;;;;;5105905;27;20191;-55
2021/06/15 04:07:38;;;;;;;11.13;5.87;;;;;;;;;;5122743;27;20203;-54
2021/06/15 04:10:06;;;;;;;11.40;6.73;;;;;;;;;;5108640;27;20191;-55
2021/06/15 04:12:32;;;;;;;10.67;6.57;;;;;;;;;;5129644;27;20267;-52
2021/06/15 04:15:01;;;;;;;13.60;7.87;;;;;;;;;;5117234;27;20267;-52
2021/06/15 04:17:30;;;;;;;11.90;8.33;;;;;;;;;;5125677;27;20178;-55
2021/06/15 04:19:57;;;;;;;10.50;7.97;;;;;;;;;;5124915;27;20285;-53
2021/06/15 04:22:30;;;;;;;14.23;9.07;;;;;;;;;;5129610;27;20724;-54
2021/06/15 04:24:58;;;;;;;19.43;9.70;;;;;;;;;;5133332;27;20262;-53
2021/06/15 04:27:25;;;;;;;16.67;10.50;;;;;;;;;;5128086;27;20209;-53
2021/06/15 04:29:54;;;;;;;15.50;9.57;;;;;;;;;;5137242;27;20278;-53
2021/06/15 04:32:25;;;;;;;12.90;9.07;;;;;;;;;;5127158;27;21521;-52
2021/06/15 04:34:58;;;;;;;14.50;8.63;;;;;;;;;;5090715;28;20216;-52
2021/06/15 04:37:25;;;;;;;14.10;9.40;;;;;;;;;;5127896;27;20201;-55
2021/06/15 04:40:02;;;;;;;13.63;8.77;;;;;;;;;;5120731;27;20195;-53
2021/06/15 04:42:36;;;;;;;17.23;9.67;;;;;;;;;;5126528;27;20175;-52
2021/06/15 04:45:02;;;;;;;17.43;12.00;;;;;;;;;;5134724;27;20863;-52
2021/06/15 04:47:32;;;;;;;17.90;11.53;;;;;;;;;;5132647;27;20210;-55
2021/06/15 04:50:01;;;;;;;14.30;11.80;;;;;;;;;;5135126;27;20531;-53
2021/06/15 04:52:28;;;;;;;16.92;11.20;;;;;;;;;;5125910;27;20183;-54
2021/06/15 04:54:55;;;;;;;17.97;12.03;;;;;;;;;;5119431;27;20190;-53
2021/06/15 04:57:26;;;;;;;13.70;10.87;;;;;;;;;;5128528;27;20184;-54
2021/06/15 04:59:55;;;;;;;14.77;11.80;;;;;;;;;;5127775;27;20320;-53
2021/06/15 05:02:24;;;;;;;14.85;10.93;;;;;;;;;;5124902;28;20266;-54
2021/06/15 05:04:50;;;;;;;16.30;12.77;;;;;;;;;;5121979;27;20191;-54
2021/06/15 05:07:18;;;;;;;14.80;12.00;;;;;;;;;;5096091;27;20765;-53
2021/06/15 05:09:46;;;;;;;15.32;12.38;;;;;;;;;;5128175;27;20218;-54
2021/06/15 05:12:17;;;;;;;16.80;11.93;;;;;;;;;;5120677;27;20239;-54
2021/06/15 05:14:43;;;;;;;15.52;11.80;;;;;;;;;;5126674;27;20176;-52
2021/06/15 05:17:10;;;;;;;17.92;11.98;;;;;;;;;;5101333;28;20806;-54
2021/06/15 05:19:39;;;;;;;15.32;12.35;;;;;;;;;;5120862;27;20188;-54
2021/06/15 05:22:10;;;;;;;13.98;11.30;;;;;;;;;;5118478;27;20297;-51
2021/06/15 05:24:50;;;;;;;14.60;11.65;;;;;;;;;;5125188;27;20241;-54
2021/06/15 05:27:20;;;;;;;24.10;13.18;;;;;;;;;;5127714;27;20682;-53
2021/06/15 05:29:45;;;;;;;19.77;11.82;;;;;;;;;;5119227;27;20198;-54
2021/06/15 05:32:11;;;;;;;16.20;12.23;;;;;;;;;;5130577;27;20207;-54
2021/06/15 05:34:39;;;;;;;15.82;11.32;;;;;;;;;;5112167;27;20188;-51
2021/06/15 05:37:06;;;;;;;16.45;10.68;;;;;;;;;;5117841;27;20318;-53
2021/06/15 05:39:35;;;;;;;14.48;11.60;;;;;;;;;;5117488;27;20175;-54
2021/06/15 05:42:00;;;;;;;16.92;12.65;;;;;;;;;;5114142;27;20318;-55
2021/06/15 05:44:26;;;;;;;16.40;11.82;;;;;;;;;;5104486;27;20902;-51
2021/06/15 05:46:54;;;;;;;20.75;13.15;;;;;;;;;;5105792;27;20298;-54
2021/06/15 05:49:20;;;;;;;16.33;12.82;;;;;;;;;;5121068;27;20183;-52
2021/06/15 05:51:45;;;;;;;21.65;13.55;;;;;;;;;;5120406;27;20369;-52
2021/06/15 05:54:11;;;;;;;13.93;12.23;;;;;;;;;;5096894;28;20215;-52
2021/06/15 05:56:36;;;;;;;21.60;13.18;;;;;;;;;;5120724;27;20271;-54
2021/06/15 05:59:02;;;;;;;14.18;12.57;;;;;;;;;;5115402;27;20906;-53
2021/06/15 06:01:27;;;;;;;18.08;12.32;;;;;;;;;;5121799;27;20195;-54
2021/06/15 06:09:10;;;;;;;17.00;13.10;;;;;;;;;;5125703;27;20194;-54
2021/06/15 06:11:35;;;;;;;20.38;12.60;;;;;;;;;;5130752;27;20199;-51
2021/06/15 06:14:03;;;;;;;19.95;13.85;;;;;;;;;;5127814;27;20187;-54
2021/06/15 06:16:28;;;;;;;22.67;13.93;;;;;;;;;;5109534;27;20267;-54
2021/06/15 06:18:53;;;;;;;16.52;13.02;;;;;;;;;;5102630;27;20353;-57
2021/06/15 06:21:19;;;;;;;17.60;12.45;;;;;;;;;;5115458;27;20200;-54
2021/06/15 06:23:44;;;;;;;20.33;14.13;;;;;;;;;;5128962;27;20852;-53
2021/06/15 06:26:10;;;;;;;16.77;13.05;;;;;;;;;;5119744;27;20183;-54
2021/06/15 06:28:35;;;;;;;16.92;13.40;;;;;;;;;;5139875;27;20790;-55
2021/06/15 06:31:02;;;;;;;18.52;12.90;;;;;;;;;;5139497;27;20214;-52
2021/06/15 06:33:30;;;;;;;15.77;13.25;;;;;;;;;;5126743;27;20293;-52
2021/06/15 06:35:55;;;;;;;17.25;13.45;;;;;;;;;;5127650;27;20596;-56
2021/06/15 06:38:22;;;;;;;18.45;12.63;;;;;;;;;;5140691;27;20182;-53
2021/06/15 06:40:50;;;;;;;16.35;12.75;;;;;;;;;;5128209;27;20214;-51
2021/06/15 06:43:18;;;;;;;15.85;12.93;;;;;;;;;;5118417;27;20180;-54
2021/06/15 06:45:45;;;;;;;14.18;12.70;;;;;;;;;;5127872;27;20218;-53
2021/06/15 06:48:11;;;;;;;15.55;13.23;;;;;;;;;;5112035;27;20256;-53
2021/06/15 06:50:37;;;;;;;19.02;14.25;;;;;;;;;;5124454;27;20605;-53
2021/06/15 06:53:03;;;;;;;17.20;12.65;;;;;;;;;;5109288;27;20720;-53
2021/06/15 06:55:29;;;;;;;22.15;12.57;;;;;;;;;;5112364;27;20185;-53
2021/06/15 06:58:00;;;;;;;18.30;13.00;;;;;;;;;;5115472;27;20183;-58
2021/06/15 07:00:25;;;;;;;21.50;14.25;;;;;;;;;;5123373;27;20207;-52
2021/06/15 07:02:51;;;;;;;20.00;13.50;;;;;;;;;;5133483;27;20183;-51
2021/06/15 07:05:16;;;;;;;19.58;14.25;;;;;;;;;;5121834;27;20222;-53
2021/06/15 07:07:41;;;;;;;17.15;12.75;;;;;;;;;;5129621;27;20686;-53
2021/06/15 07:10:07;;;;;;;17.50;13.45;;;;;;;;;;5119246;27;20199;-53
2021/06/15 07:12:33;;;;;;;18.27;12.98;;;;;;;;;;5134679;27;20179;-52
2021/06/15 07:14:58;;;;;;;18.88;13.00;;;;;;;;;;5081556;28;20567;-53
2021/06/15 07:17:26;;;;;;;12.80;11.30;;;;;;;;;;5104786;27;20819;-52
2021/06/15 07:19:51;;;;;;;13.82;11.18;;;;;;;;;;5124932;27;20597;-56
2021/06/15 07:22:16;;;;;;;17.60;12.95;;;;;;;;;;5115159;27;20179;-55
2021/06/15 07:24:42;;;;;;;14.88;12.63;;;;;;;;;;5112632;27;20184;-52
2021/06/15 07:27:08;;;;;;;16.65;12.88;;;;;;;;;;5118736;27;20207;-53
2021/06/15 07:29:33;;;;;;;16.05;12.02;;;;;;;;;;5118690;27;20675;-53
2021/06/15 07:31:59;;;;;;;16.40;11.32;;;;;;;;;;5113505;27;20570;-56
2021/06/15 07:34:27;;;;;;;11.88;10.32;;;;;;;;;;5121919;27;20195;-54
2021/06/15 07:36:52;;;;;;;15.23;10.82;;;;;;;;;;5108223;27;20190;-50
2021/06/15 07:39:20;;;;;;;13.85;11.20;;;;;;;;;;5117085;27;20571;-51
2021/06/15 07:41:47;;;;;;;13.40;11.35;;;;;;;;;;5119871;27;20595;-54
2021/06/15 07:44:15;;;;;;;13.85;11.38;;;;;;;;;;5137853;27;20273;-52
2021/06/15 07:46:40;;;;;;;14.13;10.52;;;;;;;;;;5111707;27;20255;-57
2021/06/15 07:49:06;;;;;;;14.55;10.45;;;;;;;;;;5126712;27;20194;-56
2021/06/15 07:51:31;;;;;;;11.80;10.60;;;;;;;;;;5119438;27;20215;-53
2021/06/15 07:53:59;;;;;;;15.82;11.77;;;;;;;;;;5119984;27;20191;-52
2021/06/15 07:56:24;;;;;;;12.90;10.27;;;;;;;;;;5112121;27;20227;-56
2021/06/15 07:58:51;;;;;;;11.77;10.57;;;;;;;;;;5119996;27;20199;-53
2021/06/15 08:01:16;;;;;;;12.15;10.93;;;;;;;;;;5127000;27;20207;-53
2021/06/15 08:03:41;;;;;;;12.25;10.30;;;;;;;;;;5121062;27;20199;-53
2021/06/15 08:06:07;;;;;;;14.38;11.10;;;;;;;;;;5113237;27;20191;-53
2021/06/15 08:08:32;;;;;;;13.95;10.68;;;;;;;;;;5122456;27;20183;-54
2021/06/15 08:10:58;;;;;;;13.93;10.20;;;;;;;;;;5131357;27;20210;-54
2021/06/15 08:13:23;;;;;;;12.93;9.88;;;;;;;;;;5118880;27;20206;-52
2021/06/15 08:15:51;;;;;;;13.20;9.45;;;;;;;;;;5121582;27;20755;-53
2021/06/15 08:18:19;;;;;;;11.07;8.88;;;;;;;;;;5119319;27;20650;-53
2021/06/15 08:20:48;;;;;;;11.45;8.85;;;;;;;;;;5113769;27;20259;-54
2021/06/15 08:23:16;;;;;;;15.35;10.15;;;;;;;;;;5111754;27;20210;-53
2021/06/15 08:25:41;;;;;;;12.38;9.45;;;;;;;;;;5122436;27;20203;-53
2021/06/15 08:28:08;;;;;;;11.05;9.68;;;;;;;;;;5115265;27;20582;-54
2021/06/15 08:30:34;;;;;;;13.85;9.30;;;;;;;;;;5114812;27;20294;-53
2021/06/15 08:32:59;;;;;;;10.40;8.60;;;;;;;;;;5124000;27;20711;-51
2021/06/15 08:35:25;;;;;;;12.85;8.90;;;;;;;;;;5121796;27;20187;-55
2021/06/15 08:37:51;;;;;;;12.13;9.02;;;;;;;;;;5121059;27;20319;-53
2021/06/15 08:40:16;;;;;;;14.15;8.48;;;;;;;;;;5112600;28;20296;-53
2021/06/15 08:42:42;;;;;;;10.07;7.15;;;;;;;;;;5127760;27;20190;-53
2021/06/15 08:45:13;;;;;;;11.48;7.15;;;;;;;;;;5119966;28;20196;-53
2021/06/15 08:47:40;;;;;;;9.90;7.63;;;;;;;;;;5099332;28;20634;-53
2021/06/15 08:50:07;;;;;;;8.20;7.20;;;;;;;;;;5106082;28;20232;-53
2021/06/15 08:52:34;;;;;;;15.85;7.80;;;;;;;;;;5126473;28;20258;-51
2021/06/15 08:55:00;;;;;;;12.23;8.68;;;;;;;;;;5131399;27;20182;-53
2021/06/15 08:57:26;;;;;;;15.55;8.60;;;;;;;;;;5114449;27;20182;-54
2021/06/15 08:59:52;;;;;;;13.00;8.30;;;;;;;;;;5108789;27;20199;-53
2021/06/15 09:02:17;;;;;;;10.32;8.43;;;;;;;;;;5122604;27;20265;-53
2021/06/15 09:04:44;;;;;;;9.25;7.15;;;;;;;;;;5126326;27;20266;-53
2021/06/15 09:07:09;;;;;;;8.57;7.70;;;;;;;;;;5118736;27;20221;-53
2021/06/15 09:09:48;;;;;;;11.60;7.57;;;;;;;;;;5132459;27;20175;-52
2021/06/15 09:12:21;;;;;;;7.85;6.95;;;;;;;;;;5116357;27;20341;-52
2021/06/15 09:14:52;;;;;;;9.18;6.53;;;;;;;;;;5127977;27;20183;-54
2021/06/15 09:17:27;;;;;;;7.95;6.85;;;;;;;;;;5124333;27;20643;-53
2021/06/15 09:19:54;;;;;;;8.48;6.82;;;;;;;;;;5123945;27;20178;-55
2021/06/15 09:22:27;;;;;;;8.38;6.63;;;;;;;;;;5130666;27;20187;-53
2021/06/15 09:24:54;;;;;;;13.60;6.70;;;;;;;;;;5127786;27;20211;-54
2021/06/15 09:27:20;;;;;;;7.45;6.40;;;;;;;;;;5135307;27;20211;-53
2021/06/15 09:29:47;;;;;;;8.57;6.70;;;;;;;;;;5139584;27;20188;-53
2021/06/15 09:32:23;;;;;;;9.40;6.22;;;;;;;;;;5123218;27;20278;-53
2021/06/15 09:34:57;;;;;;;7.38;6.60;;;;;;;;;;5130476;27;20224;-56
2021/06/15 09:37:50;;;;;;;7.57;5.82;;;;;;;;;;5132471;27;20725;-53
2021/06/15 09:40:28;;;;;;;7.40;6.60;;;;;;;;;;5122256;27;20617;-54
2021/06/15 09:43:04;;;;;;;8.15;6.82;;;;;;;;;;5133134;27;20179;-54
2021/06/15 09:45:32;;;;;;;6.45;5.75;;;;;;;;;;5117889;27;20187;-55
2021/06/15 09:48:22;;;;;;;6.47;5.78;;;;;;;;;;5104960;27;20203;-55
2021/06/15 09:50:49;;;;;;;8.13;5.72;;;;;;;;;;5119585;27;20227;-54
2021/06/15 09:53:24;;;;;;;6.25;5.65;;;;;;;;;;5113579;27;20278;-55
2021/06/15 09:55:50;;;;;;;9.13;5.72;;;;;;;;;;5136472;27;20198;-55
2021/06/15 09:58:16;;;;;;;7.28;5.20;;;;;;;;;;5125199;27;20267;-54
2021/06/15 10:00:42;;;;;;;6.90;4.65;;;;;;;;;;5099113;27;20211;-55
2021/06/15 10:03:17;;;;;;;5.82;5.22;;;;;;;;;;5125411;27;20548;-53
2021/06/15 10:05:42;;;;;;;7.45;5.78;;;;;;;;;;5124679;27;20669;-53
2021/06/15 10:08:13;;;;;;;5.88;5.25;;;;;;;;;;5127128;27;20203;-55
2021/06/15 10:10:44;;;;;;;7.35;5.40;;;;;;;;;;5127594;27;20200;-54
2021/06/15 10:13:10;;;;;;;5.45;4.53;;;;;;;;;;5128502;27;20669;-54
2021/06/15 10:15:41;;;;;;;7.07;4.57;;;;;;;;;;5121800;27;20194;-55
2021/06/15 10:18:07;;;;;;;8.35;5.03;;;;;;;;;;5113612;27;20184;-55
2021/06/15 10:20:34;;;;;;;6.28;4.80;;;;;;;;;;5127562;27;20774;-54
2021/06/15 10:23:00;;;;;;;5.45;4.55;;;;;;;;;;5116627;27;20187;-53
2021/06/15 10:25:31;;;;;;;4.93;4.43;;;;;;;;;;5104060;27;20692;-53
2021/06/15 10:27:58;;;;;;;5.00;4.50;;;;;;;;;;5125863;27;20200;-55
2021/06/15 10:30:33;;;;;;;5.30;4.30;;;;;;;;;;5102158;27;20227;-55
2021/06/15 10:33:02;;;;;;;5.78;4.32;;;;;;;;;;5083747;27;20222;-53
2021/06/15 10:35:37;;;;;;;5.43;3.95;;;;;;;;;;5101769;27;20208;-54
2021/06/15 10:38:04;;;;;;;7.03;4.28;;;;;;;;;;5124493;27;20744;-54
2021/06/15 10:40:31;;;;;;;5.63;4.10;;;;;;;;;;5125310;27;20297;-53
2021/06/15 10:43:22;;;;;;;4.68;4.25;;;;;;;;;;5127392;27;20248;-55
2021/06/15 10:45:58;;;;;;;6.05;3.92;;;;;;;;;;5107446;27;20221;-53
2021/06/15 10:48:28;;;;;;;7.57;4.65;;;;;;;;;;5131538;27;20669;-54
2021/06/15 10:50:56;;;;;;;5.22;4.60;;;;;;;;;;5117569;27;20298;-53
2021/06/15 10:53:40;;;;;;;5.22;4.07;;;;;;;;;;5117603;27;20180;-52
2021/06/15 10:56:09;;;;;;;6.60;4.57;;;;;;;;;;5125240;27;20175;-54
2021/06/15 10:58:34;;;;;;;5.68;4.70;;;;;;;;;;5121715;27;20832;-53
2021/06/15 11:01:16;;;;;;;5.85;4.00;;;;;;;;;;5122990;27;20222;-53
2021/06/15 11:04:07;;;;;;;6.60;3.45;;;;;;;;;;5112111;27;20238;-53
2021/06/15 11:06:32;;;;;;;4.93;3.67;;;;;;;;;;5108687;27;20821;-51
2021/06/15 11:09:21;;;;;;;5.88;4.07;;;;;;;;;;5103704;27;20195;-56
2021/06/15 11:12:01;;;;;;;19.42;4.07;;;;;;;;;;5118865;27;20211;-54
2021/06/15 11:14:26;;;;;;;6.35;3.65;;;;;;;;;;5129899;27;20257;-54
2021/06/15 11:16:56;;;;;;;7.53;4.00;;;;;;;;;;5129510;27;20207;-53
2021/06/15 11:19:24;;;;;;;5.65;3.67;;;;;;;;;;5119692;27;20179;-51
2021/06/15 11:21:55;;;;;;;6.57;3.45;;;;;;;;;;5119855;27;20203;-53
2021/06/15 11:24:27;;;;;;;6.75;3.70;;;;;;;;;;5115885;27;20943;-53
2021/06/15 11:26:54;;;;;;;6.78;3.20;;;;;;;;;;5126901;27;20202;-52
2021/06/15 11:29:37;;;;;;;5.13;2.80;;;;;;;;;;5123624;27;20184;-52
2021/06/15 11:32:16;;;;;;;6.45;2.55;;;;;;;;;;5110910;27;20785;-54
2021/06/15 11:35:03;;;;;;;7.50;2.80;;;;;;;;;;5107891;27;20219;-53
2021/06/15 11:37:35;;;;;;;5.53;2.78;;;;;;;;;;5125895;27;20217;-53
2021/06/15 11:40:17;;;;;;;2.92;2.58;;;;;;;;;;5128820;27;20183;-55
2021/06/15 11:42:52;;;;;;;6.63;2.83;;;;;;;;;;5121372;27;20712;-53
2021/06/15 11:45:17;;;;;;;7.45;2.72;;;;;;;;;;5108251;27;20252;-53
2021/06/15 11:47:47;;;;;;;4.57;2.70;;;;;;;;;;5125437;27;20220;-54
2021/06/15 11:50:20;;;;;;;3.88;2.30;;;;;;;;;;5123436;27;20207;-56
2021/06/15 11:52:53;;;;;;;4.50;2.10;;;;;;;;;;5139710;27;20273;-54
2021/06/15 11:55:23;;;;;;;5.03;2.50;;;;;;;;;;5135219;27;20183;-54
2021/06/15 11:57:49;;;;;;;4.22;2.30;;;;;;;;;;5132799;27;20191;-52
2021/06/15 12:00:21;;;;;;;4.20;2.47;;;;;;;;;;5125395;27;20851;-54
2021/06/15 12:02:47;;;;;;;4.15;2.25;;;;;;;;;;5119943;27;20206;-56
2021/06/15 12:05:15;;;;;;;3.55;2.38;;;;;;;;;;5122015;27;20611;-57
2021/06/15 12:07:43;;;;;;;5.28;2.40;;;;;;;;;;5122429;27;20223;-54
2021/06/15 12:10:10;;;;;;;4.50;2.35;;;;;;;;;;5124224;27;20212;-52
2021/06/15 12:12:57;;;;;;;3.90;2.33;;;;;;;;;;5113631;27;20835;-54
2021/06/15 12:15:34;;;;;;;4.85;2.67;;;;;;;;;;5130949;27;20186;-54
2021/06/15 12:18:03;;;;;;;4.65;2.20;;;;;;;;;;5127544;27;20179;-55
2021/06/15 12:20:32;;;;;;;5.82;2.70;;;;;;;;;;5120754;27;20200;-55
2021/06/15 12:22:59;;;;;;;4.45;2.60;;;;;;;;;;5124840;27;20183;-54
2021/06/15 12:25:29;;;;;;;4.53;2.55;;;;;;;;;;5121680;27;20262;-54
2021/06/15 12:28:13;;;;;;;4.47;2.80;;;;;;;;;;5117999;27;20234;-53
2021/06/15 12:30:39;;;;;;;4.63;1.98;;;;;;;;;;5120578;27;20293;-54
2021/06/15 12:33:06;;;;;;;2.92;1.85;;;;;;;;;;5120641;27;20191;-54
2021/06/15 12:35:31;;;;;;;3.70;1.88;;;;;;;;;;5099294;27;20190;-53
2021/06/15 12:37:56;;;;;;;5.07;2.05;;;;;;;;;;5117966;27;20180;-56
2021/06/15 12:40:24;;;;;;;3.80;2.20;;;;;;;;;;5115050;27;20627;-53
2021/06/15 12:42:52;;;;;;;4.90;2.17;;;;;;;;;;5108227;27;20201;-53
2021/06/15 12:45:17;;;;;;;3.78;2.10;;;;;;;;;;5116550;27;20236;-59
2021/06/15 12:47:44;;;;;;;3.45;2.13;;;;;;;;;;5098506;28;20199;-55
2021/06/15 12:50:23;;;;;;;6.15;2.10;;;;;;;;;;5108115;27;20270;-53
2021/06/15 12:52:48;;;;;;;4.63;1.92;;;;;;;;;;5112136;27;20194;-52
2021/06/15 12:55:16;;;;;;;3.92;2.10;;;;;;;;;;5112862;28;20652;-53
2021/06/15 12:57:53;;;;;;;3.72;2.15;;;;;;;;;;5113439;28;20195;-53
2021/06/15 13:00:21;;;;;;;5.45;2.38;;;;;;;;;;5102054;27;20210;-53
2021/06/15 13:02:46;;;;;;;5.38;2.60;;;;;;;;;;5114041;27;20199;-53
2021/06/15 13:05:19;;;;;;;3.35;2.08;;;;;;;;;;5114004;27;20566;-54
2021/06/15 13:07:58;;;;;;;4.30;2.10;;;;;;;;;;5119477;27;20214;-53
2021/06/15 13:10:25;;;;;;;4.25;2.50;;;;;;;;;;5123075;27;20214;-52
2021/06/15 13:12:57;;;;;;;3.42;2.25;;;;;;;;;;5116677;27;20178;-53
2021/06/15 13:15:26;;;;;;;3.72;2.42;;;;;;;;;;5123998;28;20190;-53
2021/06/15 13:17:59;;;;;;;5.13;2.50;;;;;;;;;;5117172;27;20280;-53
2021/06/15 13:20:26;;;;;;;5.93;2.60;;;;;;;;;;5117612;27;20291;-53
2021/06/15 13:22:53;;;;;;;3.55;2.13;;;;;;;;;;5097704;28;20239;-52
2021/06/15 13:25:28;;;;;;;5.53;2.03;;;;;;;;;;5099722;28;20558;-52
2021/06/15 13:28:01;;;;;;;3.95;2.15;;;;;;;;;;5108886;27;20198;-55
2021/06/15 13:30:36;;;;;;;4.50;2.13;;;;;;;;;;5121652;27;20239;-53
2021/06/15 13:33:22;;;;;;;4.80;2.20;;;;;;;;;;5128741;27;20193;-52
2021/06/15 13:35:56;;;;;;;6.13;2.20;;;;;;;;;;5093110;28;20199;-54
2021/06/15 13:38:23;;;;;;;4.70;2.17;;;;;;;;;;5126268;27;20179;-52
2021/06/15 13:41:00;;;;;;;3.78;2.20;;;;;;;;;;5102955;27;20217;-53
2021/06/15 13:43:30;;;;;;;6.95;2.63;;;;;;;;;;5123655;27;20183;-51
2021/06/15 13:46:06;;;;;;;4.57;2.10;;;;;;;;;;5116719;27;20191;-51
2021/06/15 13:48:35;;;;;;;4.68;2.10;;;;;;;;;;5122180;27;20248;-53
2021/06/15 13:51:02;;;;;;;3.58;1.95;;;;;;;;;;5124989;27;20207;-53
2021/06/15 13:53:27;;;;;;;5.55;2.22;;;;;;;;;;5136816;27;20185;-53
2021/06/15 13:55:52;;;;;;;4.88;2.03;;;;;;;;;;5126137;27;20196;-52
2021/06/15 13:58:20;;;;;;;4.25;1.80;;;;;;;;;;5110727;27;20210;-52
2021/06/15 14:00:46;;;;;;;8.50;1.75;;;;;;;;;;5131118;27;20226;-52
2021/06/15 14:03:13;;;;;;;4.25;2.08;;;;;;;;;;5128999;27;20190;-53
2021/06/15 14:05:39;;;;;;;18.98;2.97;;;;;;;;;;5131130;27;20228;-54
2021/06/15 14:08:08;;;;;;;5.22;2.10;;;;;;;;;;5110426;27;20200;-51
2021/06/15 14:10:36;;;;;;;4.00;2.20;;;;;;;;;;5112090;27;20499;-55
2021/06/15 14:13:07;;;;;;;3.40;1.73;;;;;;;;;;5125360;27;20215;-53
2021/06/15 14:15:33;;;;;;;4.65;1.70;;;;;;;;;;5121648;27;20656;-53
2021/06/15 14:17:59;;;;;;;4.35;1.83;;;;;;;;;;5115011;27;20194;-55
2021/06/15 14:20:27;;;;;;;4.25;1.90;;;;;;;;;;5130002;27;20206;-52
2021/06/15 14:22:54;;;;;;;4.38;1.98;;;;;;;;;;5126471;27;20555;-53
2021/06/15 14:25:22;;;;;;;3.97;1.85;;;;;;;;;;5137436;27;20194;-54
2021/06/15 14:27:53;;;;;;;2.45;1.67;;;;;;;;;;5117240;27;20211;-54
2021/06/15 14:30:20;;;;;;;3.58;1.65;;;;;;;;;;5119441;27;20264;-54
2021/06/15 14:32:46;;;;;;;3.90;1.50;;;;;;;;;;5114872;27;20247;-54
2021/06/15 14:35:12;;;;;;;4.43;1.90;;;;;;;;;;5106236;27;20227;-52
2021/06/15 14:37:41;;;;;;;3.90;1.83;;;;;;;;;;5128958;27;20262;-53
2021/06/15 14:40:08;;;;;;;3.78;1.70;;;;;;;;;;5119219;27;20786;-55
2021/06/15 14:42:33;;;;;;;3.33;1.70;;;;;;;;;;5127009;27;20187;-52
2021/06/15 14:44:59;;;;;;;2.35;1.45;;;;;;;;;;5114453;27;20194;-54
2021/06/15 14:47:24;;;;;;;2.88;1.67;;;;;;;;;;5115668;27;20218;-54
2021/06/15 14:49:50;;;;;;;2.40;1.40;;;;;;;;;;5102534;28;20196;-53
2021/06/15 14:52:15;;;;;;;3.50;1.63;;;;;;;;;;5108116;27;20207;-53